Terminal Aerodrome Forecast
Issued by NWS

Home | Current Version | Previous Version | Text Only | Print | Product List | Glossary On
Versions: 1 2 3 4 5 6 7 8 9 10 11 12 13 14 15 16 17 18 19 20 21 22 23 24 25 26 27 28
000
FTUS42 TJSJ 291009 AAA
TAFKPK
TAF AMD
TKPK 291009Z 2910/3006 VRB06KT P6SM VCTS SCT015CB BKN040
      TEMPO 2910/2911 BKN015CB
     FM291300 08012KT P6SM VCTS SCT020CB BKN040
     FM292300 VRB06KT P6SM SCT018
      AMD NOT SKED TIL 291100=

USA.gov is the U.S. government's official web portal to all federal, state and local government web resources and services.